sensor_id;sensor_type;location;lat;lon;timestamp;P1;durP1;ratioP1;P2;durP2;ratioP2
8478;SDS011;4276;49.354;6.804;2023-04-24T00:00:51;0.90;;;0.90;;
8478;SDS011;4276;49.354;6.804;2023-04-24T00:03:18;0.90;;;0.90;;
8478;SDS011;4276;49.354;6.804;2023-04-24T00:05:47;1.75;;;1.00;;
8478;SDS011;4276;49.354;6.804;2023-04-24T00:08:14;1.02;;;0.90;;
8478;SDS011;4276;49.354;6.804;2023-04-24T00:10:41;1.90;;;0.95;;
8478;SDS011;4276;49.354;6.804;2023-04-24T00:13:07;1.45;;;0.98;;
8478;SDS011;4276;49.354;6.804;2023-04-24T00:15:34;1.77;;;1.15;;
8478;SDS011;4276;49.354;6.804;2023-04-24T00:18:00;1.60;;;1.48;;
8478;SDS011;4276;49.354;6.804;2023-04-24T00:20:27;1.27;;;1.20;;
8478;SDS011;4276;49.354;6.804;2023-04-24T00:22:55;0.80;;;0.80;;
8478;SDS011;4276;49.354;6.804;2023-04-24T00:25:22;1.80;;;1.20;;
8478;SDS011;4276;49.354;6.804;2023-04-24T00:27:48;1.00;;;1.00;;
8478;SDS011;4276;49.354;6.804;2023-04-24T00:30:14;1.05;;;0.93;;
8478;SDS011;4276;49.354;6.804;2023-04-24T00:32:41;2.15;;;1.17;;
8478;SDS011;4276;49.354;6.804;2023-04-24T00:35:08;4.85;;;1.35;;
8478;SDS011;4276;49.354;6.804;2023-04-24T00:37:34;0.98;;;0.98;;
8478;SDS011;4276;49.354;6.804;2023-04-24T00:40:01;1.13;;;1.13;;
8478;SDS011;4276;49.354;6.804;2023-04-24T00:42:28;1.17;;;1.15;;
8478;SDS011;4276;49.354;6.804;2023-04-24T00:44:55;1.58;;;1.00;;
8478;SDS011;4276;49.354;6.804;2023-04-24T00:47:22;1.13;;;1.10;;
8478;SDS011;4276;49.354;6.804;2023-04-24T00:49:49;1.35;;;1.25;;
8478;SDS011;4276;49.354;6.804;2023-04-24T00:52:16;1.70;;;1.60;;
8478;SDS011;4276;49.354;6.804;2023-04-24T00:54:44;1.40;;;1.40;;
8478;SDS011;4276;49.354;6.804;2023-04-24T00:57:11;1.60;;;1.50;;
8478;SDS011;4276;49.354;6.804;2023-04-24T00:59:39;1.33;;;1.23;;
8478;SDS011;4276;49.354;6.804;2023-04-24T01:02:07;1.77;;;1.67;;
8478;SDS011;4276;49.354;6.804;2023-04-24T01:04:35;1.58;;;1.52;;
8478;SDS011;4276;49.354;6.804;2023-04-24T01:07:02;1.92;;;1.83;;
8478;SDS011;4276;49.354;6.804;2023-04-24T01:09:30;1.90;;;1.80;;
8478;SDS011;4276;49.354;6.804;2023-04-24T01:11:57;1.90;;;1.80;;
8478;SDS011;4276;49.354;6.804;2023-04-24T01:14:24;2.40;;;2.20;;
8478;SDS011;4276;49.354;6.804;2023-04-24T01:16:50;2.30;;;2.10;;
8478;SDS011;4276;49.354;6.804;2023-04-24T01:19:17;2.13;;;2.03;;
8478;SDS011;4276;49.354;6.804;2023-04-24T01:21:44;2.50;;;2.28;;
8478;SDS011;4276;49.354;6.804;2023-04-24T01:24:13;2.22;;;2.13;;
8478;SDS011;4276;49.354;6.804;2023-04-24T01:26:40;1.98;;;1.88;;
8478;SDS011;4276;49.354;6.804;2023-04-24T01:29:06;2.38;;;2.17;;
8478;SDS011;4276;49.354;6.804;2023-04-24T01:31:33;2.60;;;2.40;;
8478;SDS011;4276;49.354;6.804;2023-04-24T01:34:00;2.38;;;2.17;;
8478;SDS011;4276;49.354;6.804;2023-04-24T01:36:27;2.95;;;2.75;;
8478;SDS011;4276;49.354;6.804;2023-04-24T01:38:55;3.53;;;2.60;;
8478;SDS011;4276;49.354;6.804;2023-04-24T01:41:21;2.20;;;2.10;;
8478;SDS011;4276;49.354;6.804;2023-04-24T01:43:48;2.30;;;2.20;;
8478;SDS011;4276;49.354;6.804;2023-04-24T01:46:15;2.60;;;2.40;;
8478;SDS011;4276;49.354;6.804;2023-04-24T01:48:41;3.00;;;2.70;;
8478;SDS011;4276;49.354;6.804;2023-04-24T01:51:08;2.95;;;2.70;;
8478;SDS011;4276;49.354;6.804;2023-04-24T01:53:34;3.15;;;2.53;;
8478;SDS011;4276;49.354;6.804;2023-04-24T01:56:01;2.97;;;2.53;;
8478;SDS011;4276;49.354;6.804;2023-04-24T01:58:27;2.83;;;2.60;;
8478;SDS011;4276;49.354;6.804;2023-04-24T02:00:56;2.90;;;2.70;;
8478;SDS011;4276;49.354;6.804;2023-04-24T02:03:22;2.42;;;2.22;;
8478;SDS011;4276;49.354;6.804;2023-04-24T02:05:49;2.80;;;2.60;;
8478;SDS011;4276;49.354;6.804;2023-04-24T02:08:16;2.83;;;2.63;;
8478;SDS011;4276;49.354;6.804;2023-04-24T02:10:42;2.83;;;2.63;;
8478;SDS011;4276;49.354;6.804;2023-04-24T02:13:08;2.55;;;2.35;;
8478;SDS011;4276;49.354;6.804;2023-04-24T02:15:35;2.83;;;2.58;;
8478;SDS011;4276;49.354;6.804;2023-04-24T02:18:02;3.05;;;2.80;;
8478;SDS011;4276;49.354;6.804;2023-04-24T02:20:28;2.70;;;2.50;;
8478;SDS011;4276;49.354;6.804;2023-04-24T02:22:55;2.75;;;2.55;;
8478;SDS011;4276;49.354;6.804;2023-04-24T02:25:21;2.72;;;2.53;;
8478;SDS011;4276;49.354;6.804;2023-04-24T02:27:48;3.10;;;2.90;;
8478;SDS011;4276;49.354;6.804;2023-04-24T02:30:14;3.22;;;3.03;;
8478;SDS011;4276;49.354;6.804;2023-04-24T02:32:40;3.03;;;2.83;;
8478;SDS011;4276;49.354;6.804;2023-04-24T02:35:07;3.30;;;3.00;;
8478;SDS011;4276;49.354;6.804;2023-04-24T02:37:34;3.30;;;3.00;;
8478;SDS011;4276;49.354;6.804;2023-04-24T02:40:01;3.60;;;3.30;;
8478;SDS011;4276;49.354;6.804;2023-04-24T02:42:27;3.30;;;3.10;;
8478;SDS011;4276;49.354;6.804;2023-04-24T02:44:54;3.20;;;3.00;;
8478;SDS011;4276;49.354;6.804;2023-04-24T02:47:20;3.78;;;3.10;;
8478;SDS011;4276;49.354;6.804;2023-04-24T02:49:47;4.05;;;3.65;;
8478;SDS011;4276;49.354;6.804;2023-04-24T02:52:13;3.70;;;3.40;;
8478;SDS011;4276;49.354;6.804;2023-04-24T02:54:40;3.78;;;3.50;;
8478;SDS011;4276;49.354;6.804;2023-04-24T02:57:07;3.58;;;3.28;;
8478;SDS011;4276;49.354;6.804;2023-04-24T02:59:33;3.90;;;3.60;;
8478;SDS011;4276;49.354;6.804;2023-04-24T03:02:00;3.83;;;3.53;;
8478;SDS011;4276;49.354;6.804;2023-04-24T03:04:26;3.95;;;3.65;;
8478;SDS011;4276;49.354;6.804;2023-04-24T03:06:53;4.28;;;3.97;;
8478;SDS011;4276;49.354;6.804;2023-04-24T03:09:21;4.10;;;3.80;;
8478;SDS011;4276;49.354;6.804;2023-04-24T03:11:47;4.50;;;4.20;;
8478;SDS011;4276;49.354;6.804;2023-04-24T03:14:15;4.57;;;4.28;;
8478;SDS011;4276;49.354;6.804;2023-04-24T03:16:42;4.90;;;4.38;;
8478;SDS011;4276;49.354;6.804;2023-04-24T03:19:09;5.10;;;4.60;;
8478;SDS011;4276;49.354;6.804;2023-04-24T03:21:35;4.72;;;4.40;;
8478;SDS011;4276;49.354;6.804;2023-04-24T03:24:09;5.18;;;4.78;;
8478;SDS011;4276;49.354;6.804;2023-04-24T03:26:35;4.97;;;4.43;;
8478;SDS011;4276;49.354;6.804;2023-04-24T03:29:02;5.07;;;4.57;;
8478;SDS011;4276;49.354;6.804;2023-04-24T03:31:28;5.55;;;5.15;;
8478;SDS011;4276;49.354;6.804;2023-04-24T03:33:55;4.95;;;4.50;;
8478;SDS011;4276;49.354;6.804;2023-04-24T03:36:21;5.40;;;4.90;;
8478;SDS011;4276;49.354;6.804;2023-04-24T03:38:48;5.47;;;4.68;;
8478;SDS011;4276;49.354;6.804;2023-04-24T03:41:14;4.93;;;4.53;;
8478;SDS011;4276;49.354;6.804;2023-04-24T03:43:40;5.40;;;5.00;;
8478;SDS011;4276;49.354;6.804;2023-04-24T03:46:07;6.30;;;5.70;;
8478;SDS011;4276;49.354;6.804;2023-04-24T03:48:35;5.47;;;4.97;;
8478;SDS011;4276;49.354;6.804;2023-04-24T03:51:02;5.65;;;5.10;;
8478;SDS011;4276;49.354;6.804;2023-04-24T03:53:28;5.65;;;5.25;;
8478;SDS011;4276;49.354;6.804;2023-04-24T03:55:56;5.38;;;4.97;;
8478;SDS011;4276;49.354;6.804;2023-04-24T03:58:22;5.43;;;4.93;;
8478;SDS011;4276;49.354;6.804;2023-04-24T04:00:49;5.60;;;5.10;;
8478;SDS011;4276;49.354;6.804;2023-04-24T04:03:16;5.30;;;4.90;;
8478;SDS011;4276;49.354;6.804;2023-04-24T04:05:43;5.93;;;5.47;;
8478;SDS011;4276;49.354;6.804;2023-04-24T04:08:09;5.80;;;5.28;;
8478;SDS011;4276;49.354;6.804;2023-04-24T04:10:36;6.15;;;5.60;;
8478;SDS011;4276;49.354;6.804;2023-04-24T04:13:02;6.45;;;5.85;;
8478;SDS011;4276;49.354;6.804;2023-04-24T04:15:29;5.88;;;5.40;;
8478;SDS011;4276;49.354;6.804;2023-04-24T04:17:55;5.63;;;5.22;;
8478;SDS011;4276;49.354;6.804;2023-04-24T04:20:22;6.35;;;5.60;;
8478;SDS011;4276;49.354;6.804;2023-04-24T04:22:48;6.28;;;5.70;;
8478;SDS011;4276;49.354;6.804;2023-04-24T04:25:14;5.97;;;5.57;;
8478;SDS011;4276;49.354;6.804;2023-04-24T04:27:41;5.43;;;4.97;;
8478;SDS011;4276;49.354;6.804;2023-04-24T04:30:08;5.82;;;5.43;;
8478;SDS011;4276;49.354;6.804;2023-04-24T04:32:35;6.00;;;5.43;;
8478;SDS011;4276;49.354;6.804;2023-04-24T04:35:03;5.88;;;5.43;;
8478;SDS011;4276;49.354;6.804;2023-04-24T04:37:30;6.30;;;5.70;;
8478;SDS011;4276;49.354;6.804;2023-04-24T04:39:57;6.22;;;5.63;;
8478;SDS011;4276;49.354;6.804;2023-04-24T04:42:24;5.60;;;5.20;;
8478;SDS011;4276;49.354;6.804;2023-04-24T04:44:51;5.70;;;5.20;;
8478;SDS011;4276;49.354;6.804;2023-04-24T04:47:17;5.85;;;5.10;;
8478;SDS011;4276;49.354;6.804;2023-04-24T04:49:44;5.22;;;4.80;;
8478;SDS011;4276;49.354;6.804;2023-04-24T04:52:11;6.00;;;5.15;;
8478;SDS011;4276;49.354;6.804;2023-04-24T04:54:37;5.80;;;5.03;;
8478;SDS011;4276;49.354;6.804;2023-04-24T04:57:04;5.55;;;5.05;;
8478;SDS011;4276;49.354;6.804;2023-04-24T04:59:30;5.25;;;4.85;;
8478;SDS011;4276;49.354;6.804;2023-04-24T05:01:57;5.32;;;4.93;;
8478;SDS011;4276;49.354;6.804;2023-04-24T05:04:23;5.35;;;4.25;;
8478;SDS011;4276;49.354;6.804;2023-04-24T05:06:50;4.63;;;4.30;;
8478;SDS011;4276;49.354;6.804;2023-04-24T05:09:17;4.60;;;4.28;;
8478;SDS011;4276;49.354;6.804;2023-04-24T05:11:43;4.43;;;4.13;;
8478;SDS011;4276;49.354;6.804;2023-04-24T05:14:10;4.70;;;4.35;;
8478;SDS011;4276;49.354;6.804;2023-04-24T05:16:38;4.78;;;4.38;;
8478;SDS011;4276;49.354;6.804;2023-04-24T05:19:05;5.10;;;4.70;;
8478;SDS011;4276;49.354;6.804;2023-04-24T05:21:32;5.38;;;4.88;;
8478;SDS011;4276;49.354;6.804;2023-04-24T05:23:58;5.13;;;4.72;;
8478;SDS011;4276;49.354;6.804;2023-04-24T05:26:25;5.22;;;4.82;;
8478;SDS011;4276;49.354;6.804;2023-04-24T05:28:51;5.43;;;4.90;;
8478;SDS011;4276;49.354;6.804;2023-04-24T05:31:18;4.75;;;4.35;;
8478;SDS011;4276;49.354;6.804;2023-04-24T05:33:44;5.53;;;4.95;;
8478;SDS011;4276;49.354;6.804;2023-04-24T05:36:13;5.65;;;5.15;;
8478;SDS011;4276;49.354;6.804;2023-04-24T05:38:40;6.13;;;5.63;;
8478;SDS011;4276;49.354;6.804;2023-04-24T05:41:07;5.60;;;5.10;;
8478;SDS011;4276;49.354;6.804;2023-04-24T05:43:34;5.05;;;4.65;;
8478;SDS011;4276;49.354;6.804;2023-04-24T05:46:00;5.15;;;4.75;;
8478;SDS011;4276;49.354;6.804;2023-04-24T05:48:27;5.63;;;5.13;;
8478;SDS011;4276;49.354;6.804;2023-04-24T05:50:53;5.25;;;4.82;;
8478;SDS011;4276;49.354;6.804;2023-04-24T05:53:19;5.03;;;4.50;;
8478;SDS011;4276;49.354;6.804;2023-04-24T05:55:47;4.72;;;4.32;;
8478;SDS011;4276;49.354;6.804;2023-04-24T05:58:13;5.38;;;4.90;;
8478;SDS011;4276;49.354;6.804;2023-04-24T06:00:41;5.03;;;4.68;;
8478;SDS011;4276;49.354;6.804;2023-04-24T06:03:08;5.30;;;4.90;;
8478;SDS011;4276;49.354;6.804;2023-04-24T06:05:35;5.15;;;4.70;;
8478;SDS011;4276;49.354;6.804;2023-04-24T06:08:02;4.63;;;4.22;;
8478;SDS011;4276;49.354;6.804;2023-04-24T06:10:28;4.68;;;4.30;;
8478;SDS011;4276;49.354;6.804;2023-04-24T06:12:55;4.80;;;4.40;;
8478;SDS011;4276;49.354;6.804;2023-04-24T06:15:29;5.18;;;4.68;;
8478;SDS011;4276;49.354;6.804;2023-04-24T06:17:57;4.45;;;4.15;;
8478;SDS011;4276;49.354;6.804;2023-04-24T06:20:23;4.10;;;3.80;;
8478;SDS011;4276;49.354;6.804;2023-04-24T06:22:50;4.45;;;4.15;;
8478;SDS011;4276;49.354;6.804;2023-04-24T06:25:17;4.13;;;3.83;;
8478;SDS011;4276;49.354;6.804;2023-04-24T06:27:45;4.72;;;4.43;;
8478;SDS011;4276;49.354;6.804;2023-04-24T06:30:12;4.57;;;4.15;;
8478;SDS011;4276;49.354;6.804;2023-04-24T06:32:39;4.20;;;3.80;;
8478;SDS011;4276;49.354;6.804;2023-04-24T06:35:06;3.95;;;3.75;;
8478;SDS011;4276;49.354;6.804;2023-04-24T06:37:34;3.90;;;3.55;;
8478;SDS011;4276;49.354;6.804;2023-04-24T06:40:00;3.78;;;3.58;;
8478;SDS011;4276;49.354;6.804;2023-04-24T06:42:27;4.18;;;3.88;;
8478;SDS011;4276;49.354;6.804;2023-04-24T06:44:53;4.20;;;3.83;;
8478;SDS011;4276;49.354;6.804;2023-04-24T06:47:20;4.35;;;4.05;;
8478;SDS011;4276;49.354;6.804;2023-04-24T06:49:46;4.07;;;3.78;;
8478;SDS011;4276;49.354;6.804;2023-04-24T06:52:13;4.50;;;4.10;;
8478;SDS011;4276;49.354;6.804;2023-04-24T06:54:40;4.00;;;3.70;;
8478;SDS011;4276;49.354;6.804;2023-04-24T06:57:08;4.45;;;4.15;;
8478;SDS011;4276;49.354;6.804;2023-04-24T06:59:34;4.40;;;4.10;;
8478;SDS011;4276;49.354;6.804;2023-04-24T07:02:01;5.65;;;4.05;;
8478;SDS011;4276;49.354;6.804;2023-04-24T07:04:27;4.03;;;3.65;;
8478;SDS011;4276;49.354;6.804;2023-04-24T07:06:54;4.20;;;3.78;;
8478;SDS011;4276;49.354;6.804;2023-04-24T07:09:24;4.90;;;4.45;;
8478;SDS011;4276;49.354;6.804;2023-04-24T07:11:52;4.45;;;4.05;;
8478;SDS011;4276;49.354;6.804;2023-04-24T07:14:19;4.30;;;3.90;;
8478;SDS011;4276;49.354;6.804;2023-04-24T07:16:46;4.30;;;4.00;;
8478;SDS011;4276;49.354;6.804;2023-04-24T07:19:13;3.92;;;3.63;;
8478;SDS011;4276;49.354;6.804;2023-04-24T07:21:40;5.80;;;4.30;;
8478;SDS011;4276;49.354;6.804;2023-04-24T07:24:07;4.97;;;4.57;;
8478;SDS011;4276;49.354;6.804;2023-04-24T07:26:36;5.43;;;5.03;;
8478;SDS011;4276;49.354;6.804;2023-04-24T07:29:04;4.75;;;4.32;;
8478;SDS011;4276;49.354;6.804;2023-04-24T07:31:30;5.88;;;5.07;;
8478;SDS011;4276;49.354;6.804;2023-04-24T07:33:58;4.93;;;4.53;;
8478;SDS011;4276;49.354;6.804;2023-04-24T07:36:24;4.78;;;4.47;;
8478;SDS011;4276;49.354;6.804;2023-04-24T07:38:52;5.18;;;4.78;;
8478;SDS011;4276;49.354;6.804;2023-04-24T07:41:19;5.25;;;4.80;;
8478;SDS011;4276;49.354;6.804;2023-04-24T07:43:46;4.93;;;4.63;;
8478;SDS011;4276;49.354;6.804;2023-04-24T07:46:13;4.80;;;4.40;;
8478;SDS011;4276;49.354;6.804;2023-04-24T07:48:39;5.55;;;5.15;;
8478;SDS011;4276;49.354;6.804;2023-04-24T07:51:06;5.88;;;5.30;;
8478;SDS011;4276;49.354;6.804;2023-04-24T07:53:32;5.85;;;5.38;;
8478;SDS011;4276;49.354;6.804;2023-04-24T07:55:59;6.00;;;5.40;;
8478;SDS011;4276;49.354;6.804;2023-04-24T07:58:25;6.50;;;5.90;;
8478;SDS011;4276;49.354;6.804;2023-04-24T08:00:52;6.97;;;6.35;;
8478;SDS011;4276;49.354;6.804;2023-04-24T08:03:18;6.68;;;6.00;;
8478;SDS011;4276;49.354;6.804;2023-04-24T08:05:46;6.95;;;6.25;;
8478;SDS011;4276;49.354;6.804;2023-04-24T08:08:13;7.10;;;6.40;;
8478;SDS011;4276;49.354;6.804;2023-04-24T08:10:39;6.53;;;6.03;;
8478;SDS011;4276;49.354;6.804;2023-04-24T08:13:06;6.63;;;6.13;;
8478;SDS011;4276;49.354;6.804;2023-04-24T08:15:32;7.65;;;6.95;;
8478;SDS011;4276;49.354;6.804;2023-04-24T08:17:59;6.35;;;5.85;;
8478;SDS011;4276;49.354;6.804;2023-04-24T08:20:25;7.20;;;6.65;;
8478;SDS011;4276;49.354;6.804;2023-04-24T08:22:52;7.40;;;6.70;;
8478;SDS011;4276;49.354;6.804;2023-04-24T08:25:18;7.15;;;6.55;;
8478;SDS011;4276;49.354;6.804;2023-04-24T08:27:45;6.05;;;5.65;;
8478;SDS011;4276;49.354;6.804;2023-04-24T08:30:11;6.88;;;6.20;;
8478;SDS011;4276;49.354;6.804;2023-04-24T08:32:38;6.55;;;6.05;;
8478;SDS011;4276;49.354;6.804;2023-04-24T08:35:05;6.63;;;6.10;;
8478;SDS011;4276;49.354;6.804;2023-04-24T08:37:34;6.90;;;6.22;;
8478;SDS011;4276;49.354;6.804;2023-04-24T08:40:02;7.28;;;6.70;;
8478;SDS011;4276;49.354;6.804;2023-04-24T08:42:33;8.02;;;7.32;;
8478;SDS011;4276;49.354;6.804;2023-04-24T08:44:59;6.63;;;6.00;;
8478;SDS011;4276;49.354;6.804;2023-04-24T08:47:26;6.85;;;6.20;;
8478;SDS011;4276;49.354;6.804;2023-04-24T08:49:53;7.32;;;6.63;;
8478;SDS011;4276;49.354;6.804;2023-04-24T08:52:20;7.78;;;6.45;;
8478;SDS011;4276;49.354;6.804;2023-04-24T08:54:47;6.22;;;5.72;;
8478;SDS011;4276;49.354;6.804;2023-04-24T08:57:14;7.95;;;6.43;;
8478;SDS011;4276;49.354;6.804;2023-04-24T08:59:41;6.85;;;6.25;;
8478;SDS011;4276;49.354;6.804;2023-04-24T09:02:09;6.95;;;6.25;;
8478;SDS011;4276;49.354;6.804;2023-04-24T09:04:37;6.50;;;5.95;;
8478;SDS011;4276;49.354;6.804;2023-04-24T09:07:04;6.90;;;6.28;;
8478;SDS011;4276;49.354;6.804;2023-04-24T09:09:32;7.43;;;6.65;;
8478;SDS011;4276;49.354;6.804;2023-04-24T09:11:59;7.10;;;6.20;;
8478;SDS011;4276;49.354;6.804;2023-04-24T09:14:26;6.70;;;6.20;;
8478;SDS011;4276;49.354;6.804;2023-04-24T09:16:54;6.93;;;6.28;;
8478;SDS011;4276;49.354;6.804;2023-04-24T09:19:20;8.30;;;6.38;;
8478;SDS011;4276;49.354;6.804;2023-04-24T09:21:48;6.97;;;6.38;;
8478;SDS011;4276;49.354;6.804;2023-04-24T09:24:18;7.15;;;6.45;;
8478;SDS011;4276;49.354;6.804;2023-04-24T09:26:49;6.90;;;6.13;;
8478;SDS011;4276;49.354;6.804;2023-04-24T09:29:23;6.63;;;6.03;;
8478;SDS011;4276;49.354;6.804;2023-04-24T09:31:49;6.97;;;6.32;;
8478;SDS011;4276;49.354;6.804;2023-04-24T09:34:20;6.60;;;6.00;;
8478;SDS011;4276;49.354;6.804;2023-04-24T09:36:51;6.68;;;6.05;;
8478;SDS011;4276;49.354;6.804;2023-04-24T09:39:18;7.10;;;6.47;;
8478;SDS011;4276;49.354;6.804;2023-04-24T09:41:54;6.60;;;6.00;;
8478;SDS011;4276;49.354;6.804;2023-04-24T09:44:25;7.20;;;6.50;;
8478;SDS011;4276;49.354;6.804;2023-04-24T09:46:59;7.00;;;6.40;;
8478;SDS011;4276;49.354;6.804;2023-04-24T09:52:09;7.43;;;6.50;;
8478;SDS011;4276;49.354;6.804;2023-04-24T09:54:36;7.07;;;6.38;;
8478;SDS011;4276;49.354;6.804;2023-04-24T09:57:03;8.07;;;7.28;;
8478;SDS011;4276;49.354;6.804;2023-04-24T09:59:30;6.25;;;5.65;;
8478;SDS011;4276;49.354;6.804;2023-04-24T10:01:56;6.68;;;6.00;;
8478;SDS011;4276;49.354;6.804;2023-04-24T10:04:25;6.07;;;5.57;;
8478;SDS011;4276;49.354;6.804;2023-04-24T10:06:53;5.85;;;5.35;;
8478;SDS011;4276;49.354;6.804;2023-04-24T10:09:21;6.50;;;5.93;;
8478;SDS011;4276;49.354;6.804;2023-04-24T10:11:50;6.72;;;5.50;;
8478;SDS011;4276;49.354;6.804;2023-04-24T10:14:18;6.18;;;5.50;;
8478;SDS011;4276;49.354;6.804;2023-04-24T10:16:48;5.72;;;5.22;;
8478;SDS011;4276;49.354;6.804;2023-04-24T10:19:19;6.35;;;5.80;;
8478;SDS011;4276;49.354;6.804;2023-04-24T10:21:46;5.15;;;4.75;;
8478;SDS011;4276;49.354;6.804;2023-04-24T10:24:17;6.07;;;5.10;;
8478;SDS011;4276;49.354;6.804;2023-04-24T10:26:44;5.60;;;5.20;;
8478;SDS011;4276;49.354;6.804;2023-04-24T10:29:12;6.25;;;5.65;;
8478;SDS011;4276;49.354;6.804;2023-04-24T10:31:39;5.45;;;4.95;;
8478;SDS011;4276;49.354;6.804;2023-04-24T10:34:06;5.78;;;5.30;;
8478;SDS011;4276;49.354;6.804;2023-04-24T10:36:34;5.82;;;5.20;;
8478;SDS011;4276;49.354;6.804;2023-04-24T10:39:02;6.50;;;5.90;;
8478;SDS011;4276;49.354;6.804;2023-04-24T10:41:30;6.60;;;6.03;;
8478;SDS011;4276;49.354;6.804;2023-04-24T10:44:07;6.57;;;6.07;;
8478;SDS011;4276;49.354;6.804;2023-04-24T10:46:34;5.90;;;5.40;;
8478;SDS011;4276;49.354;6.804;2023-04-24T10:49:05;6.30;;;5.80;;
8478;SDS011;4276;49.354;6.804;2023-04-24T10:54:27;6.38;;;5.78;;
8478;SDS011;4276;49.354;6.804;2023-04-24T11:00:18;5.45;;;4.97;;
8478;SDS011;4276;49.354;6.804;2023-04-24T11:02:47;6.10;;;5.50;;
8478;SDS011;4276;49.354;6.804;2023-04-24T11:05:19;5.80;;;5.30;;
8478;SDS011;4276;49.354;6.804;2023-04-24T11:10:46;6.97;;;5.95;;
8478;SDS011;4276;49.354;6.804;2023-04-24T11:13:17;6.72;;;5.72;;
8478;SDS011;4276;49.354;6.804;2023-04-24T11:18:59;6.03;;;5.53;;
8478;SDS011;4276;49.354;6.804;2023-04-24T11:22:18;6.13;;;5.50;;
8478;SDS011;4276;49.354;6.804;2023-04-24T11:34:49;5.32;;;4.93;;
8478;SDS011;4276;49.354;6.804;2023-04-24T11:37:16;6.10;;;5.60;;
8478;SDS011;4276;49.354;6.804;2023-04-24T11:39:43;5.97;;;5.30;;
8478;SDS011;4276;49.354;6.804;2023-04-24T11:42:10;6.75;;;6.15;;
8478;SDS011;4276;49.354;6.804;2023-04-24T11:44:37;6.32;;;5.78;;
8478;SDS011;4276;49.354;6.804;2023-04-24T11:47:07;6.18;;;5.65;;
8478;SDS011;4276;49.354;6.804;2023-04-24T11:49:36;6.43;;;5.82;;
8478;SDS011;4276;49.354;6.804;2023-04-24T11:52:03;6.03;;;5.53;;
8478;SDS011;4276;49.354;6.804;2023-04-24T11:54:30;5.07;;;4.68;;
8478;SDS011;4276;49.354;6.804;2023-04-24T11:56:57;6.97;;;6.35;;
8478;SDS011;4276;49.354;6.804;2023-04-24T11:59:23;7.45;;;6.32;;
8478;SDS011;4276;49.354;6.804;2023-04-24T12:01:50;6.68;;;6.05;;
8478;SDS011;4276;49.354;6.804;2023-04-24T12:04:17;7.00;;;6.30;;
8478;SDS011;4276;49.354;6.804;2023-04-24T12:07:01;6.47;;;5.88;;
8478;SDS011;4276;49.354;6.804;2023-04-24T12:09:27;6.53;;;5.93;;
8478;SDS011;4276;49.354;6.804;2023-04-24T12:11:55;6.13;;;5.45;;
8478;SDS011;4276;49.354;6.804;2023-04-24T12:14:23;6.10;;;5.60;;
8478;SDS011;4276;49.354;6.804;2023-04-24T12:16:50;4.40;;;4.10;;
8478;SDS011;4276;49.354;6.804;2023-04-24T12:19:23;4.80;;;4.18;;
8478;SDS011;4276;49.354;6.804;2023-04-24T12:21:59;5.50;;;4.90;;
8478;SDS011;4276;49.354;6.804;2023-04-24T12:24:29;4.70;;;4.30;;
8478;SDS011;4276;49.354;6.804;2023-04-24T12:26:57;4.60;;;4.20;;
8478;SDS011;4276;49.354;6.804;2023-04-24T12:29:24;4.55;;;4.15;;
8478;SDS011;4276;49.354;6.804;2023-04-24T12:31:51;5.00;;;4.50;;
8478;SDS011;4276;49.354;6.804;2023-04-24T12:34:21;4.90;;;4.60;;
8478;SDS011;4276;49.354;6.804;2023-04-24T12:36:49;6.10;;;5.50;;
8478;SDS011;4276;49.354;6.804;2023-04-24T12:39:16;5.90;;;5.40;;
8478;SDS011;4276;49.354;6.804;2023-04-24T12:41:56;5.88;;;5.40;;
8478;SDS011;4276;49.354;6.804;2023-04-24T12:44:30;6.40;;;5.80;;
8478;SDS011;4276;49.354;6.804;2023-04-24T12:46:57;5.65;;;5.15;;
8478;SDS011;4276;49.354;6.804;2023-04-24T12:49:24;6.18;;;5.57;;
8478;SDS011;4276;49.354;6.804;2023-04-24T12:51:50;6.00;;;5.50;;
8478;SDS011;4276;49.354;6.804;2023-04-24T12:54:17;6.20;;;5.70;;
8478;SDS011;4276;49.354;6.804;2023-04-24T12:56:43;5.60;;;5.10;;
8478;SDS011;4276;49.354;6.804;2023-04-24T12:59:10;5.65;;;5.25;;
8478;SDS011;4276;49.354;6.804;2023-04-24T13:01:36;6.40;;;5.80;;
8478;SDS011;4276;49.354;6.804;2023-04-24T13:04:04;5.97;;;5.47;;
8478;SDS011;4276;49.354;6.804;2023-04-24T13:06:31;5.78;;;5.28;;
8478;SDS011;4276;49.354;6.804;2023-04-24T13:08:58;5.40;;;5.00;;
8478;SDS011;4276;49.354;6.804;2023-04-24T13:11:24;6.13;;;5.60;;
8478;SDS011;4276;49.354;6.804;2023-04-24T13:13:51;6.40;;;5.55;;
8478;SDS011;4276;49.354;6.804;2023-04-24T13:16:20;5.50;;;5.03;;
8478;SDS011;4276;49.354;6.804;2023-04-24T13:18:47;5.30;;;4.90;;
8478;SDS011;4276;49.354;6.804;2023-04-24T13:21:13;5.50;;;5.00;;
8478;SDS011;4276;49.354;6.804;2023-04-24T13:23:39;5.15;;;4.68;;
8478;SDS011;4276;49.354;6.804;2023-04-24T13:26:07;5.70;;;4.90;;
8478;SDS011;4276;49.354;6.804;2023-04-24T13:28:34;5.60;;;5.10;;
8478;SDS011;4276;49.354;6.804;2023-04-24T13:31:01;5.40;;;5.00;;
8478;SDS011;4276;49.354;6.804;2023-04-24T13:33:27;5.22;;;4.78;;
8478;SDS011;4276;49.354;6.804;2023-04-24T13:35:53;4.68;;;4.32;;
8478;SDS011;4276;49.354;6.804;2023-04-24T13:38:20;4.38;;;4.07;;
8478;SDS011;4276;49.354;6.804;2023-04-24T13:40:48;4.18;;;3.88;;
8478;SDS011;4276;49.354;6.804;2023-04-24T13:43:15;4.15;;;3.42;;
8478;SDS011;4276;49.354;6.804;2023-04-24T13:45:41;3.88;;;3.67;;
8478;SDS011;4276;49.354;6.804;2023-04-24T13:48:08;4.10;;;3.80;;
8478;SDS011;4276;49.354;6.804;2023-04-24T13:50:35;3.45;;;3.25;;
8478;SDS011;4276;49.354;6.804;2023-04-24T13:53:02;3.10;;;2.90;;
8478;SDS011;4276;49.354;6.804;2023-04-24T13:55:28;3.92;;;3.63;;
8478;SDS011;4276;49.354;6.804;2023-04-24T13:57:55;3.17;;;2.97;;
8478;SDS011;4276;49.354;6.804;2023-04-24T14:00:22;3.05;;;2.85;;
8478;SDS011;4276;49.354;6.804;2023-04-24T14:02:50;2.83;;;2.63;;
8478;SDS011;4276;49.354;6.804;2023-04-24T14:05:16;3.35;;;3.03;;
8478;SDS011;4276;49.354;6.804;2023-04-24T14:07:44;3.72;;;3.42;;
8478;SDS011;4276;49.354;6.804;2023-04-24T14:10:10;5.43;;;3.30;;
8478;SDS011;4276;49.354;6.804;2023-04-24T14:12:37;3.95;;;3.65;;
8478;SDS011;4276;49.354;6.804;2023-04-24T14:15:04;3.50;;;3.30;;
8478;SDS011;4276;49.354;6.804;2023-04-24T14:17:31;4.13;;;3.78;;
8478;SDS011;4276;49.354;6.804;2023-04-24T14:19:57;4.68;;;4.28;;
8478;SDS011;4276;49.354;6.804;2023-04-24T14:22:26;4.90;;;4.50;;
8478;SDS011;4276;49.354;6.804;2023-04-24T14:24:53;4.35;;;4.05;;
8478;SDS011;4276;49.354;6.804;2023-04-24T14:27:19;3.42;;;3.22;;
8478;SDS011;4276;49.354;6.804;2023-04-24T14:29:46;3.72;;;3.42;;
8478;SDS011;4276;49.354;6.804;2023-04-24T14:32:12;3.35;;;2.83;;
8478;SDS011;4276;49.354;6.804;2023-04-24T14:34:41;4.72;;;4.32;;
8478;SDS011;4276;49.354;6.804;2023-04-24T14:37:07;4.50;;;4.13;;
8478;SDS011;4276;49.354;6.804;2023-04-24T14:39:34;4.07;;;3.75;;
8478;SDS011;4276;49.354;6.804;2023-04-24T14:42:00;4.43;;;4.03;;
8478;SDS011;4276;49.354;6.804;2023-04-24T14:44:27;2.53;;;2.33;;
8478;SDS011;4276;49.354;6.804;2023-04-24T14:46:54;2.60;;;2.40;;
8478;SDS011;4276;49.354;6.804;2023-04-24T14:49:20;2.28;;;2.17;;
8478;SDS011;4276;49.354;6.804;2023-04-24T14:51:47;5.07;;;4.10;;
8478;SDS011;4276;49.354;6.804;2023-04-24T14:54:13;3.40;;;3.20;;
8478;SDS011;4276;49.354;6.804;2023-04-24T14:56:39;6.45;;;4.93;;
8478;SDS011;4276;49.354;6.804;2023-04-24T14:59:07;5.43;;;4.93;;
8478;SDS011;4276;49.354;6.804;2023-04-24T15:01:33;5.90;;;5.30;;
8478;SDS011;4276;49.354;6.804;2023-04-24T15:04:00;8.65;;;7.75;;
8478;SDS011;4276;49.354;6.804;2023-04-24T15:06:26;3.10;;;2.90;;
8478;SDS011;4276;49.354;6.804;2023-04-24T15:08:53;3.08;;;2.78;;
8478;SDS011;4276;49.354;6.804;2023-04-24T15:11:20;3.20;;;3.00;;
8478;SDS011;4276;49.354;6.804;2023-04-24T15:13:46;3.45;;;3.25;;
8478;SDS011;4276;49.354;6.804;2023-04-24T15:16:13;3.75;;;3.45;;
8478;SDS011;4276;49.354;6.804;2023-04-24T15:18:40;4.60;;;4.20;;
8478;SDS011;4276;49.354;6.804;2023-04-24T15:21:06;3.90;;;3.60;;
8478;SDS011;4276;49.354;6.804;2023-04-24T15:23:33;3.40;;;3.20;;
8478;SDS011;4276;49.354;6.804;2023-04-24T15:25:59;3.88;;;3.58;;
8478;SDS011;4276;49.354;6.804;2023-04-24T15:28:27;4.22;;;3.83;;
8478;SDS011;4276;49.354;6.804;2023-04-24T15:30:54;4.68;;;4.22;;
8478;SDS011;4276;49.354;6.804;2023-04-24T15:33:20;4.82;;;4.53;;
8478;SDS011;4276;49.354;6.804;2023-04-24T15:35:47;4.97;;;4.60;;
8478;SDS011;4276;49.354;6.804;2023-04-24T15:38:14;5.47;;;4.97;;
8478;SDS011;4276;49.354;6.804;2023-04-24T15:40:41;5.60;;;5.10;;